• Join FlightAware (Why Join?)
  • Login
  • US Flag 
07:16PM EDT


 

Airport Tracker/Info


-or-


 

Live Flight TrackerFlight Track Log ✈ UAL326 ✈ 17-May-2013 ✈ KIAD - KSEA

Flight Track Log - Related Links

Times and Time Zones

All times are in EDT time to prevent confusion due to time zone crossing. See the UAL326 flight status page for this flight to view local times or setup timezone preferences in your user account.

Time Position Orientation Groundspeed Altitude Reporting Facility
EDT Latitude Longitude Course Direction KTS MPH feet Rate Location/Type
06:03PM 38.9167 -77.4333 303° West 185 213 1,300  Level Potomac TRACON
06:04PM 38.8667 -77.5000 226° Southwest 243 280 3,400 2,280 Climbing Potomac TRACON
06:05PM 38.8167 -77.5500 218° Southwest 261 300 5,900 2,580 Climbing Potomac TRACON
06:06PM 38.8700 -77.8904 261° West  Level FlightAware Approximate
06:06PM 38.7833 -77.6333 243° Southwest 281 323 8,600  Level Potomac TRACON
06:07PM 38.9006 -78.0357 288° West  Level FlightAware Approximate
06:07PM 38.7742 -77.6925 259° West 290 334 10,000  Level Washington Center
06:08PM 38.9401 -78.1802 303° West  Level FlightAware Approximate
06:08PM 38.8058 -77.7867 293° West 280 322 11,800  Level Washington Center
06:09PM 38.8453 -77.8997 294° West 323 372 12,900 1,500 Climbing Washington Center
06:10PM 38.8950 -78.0319 296° West 353 406 14,800 1,920 Climbing Washington Center
06:11PM 38.9422 -78.1617 295° West 380 437 16,700 1,680 Climbing Washington Center
06:12PM 38.9683 -78.3042 283° West 396 456 18,300 1,620 Climbing Washington Center
06:13PM 38.9711 -78.4564 271° West 417 480 20,000 1,500 Climbing Washington Center
06:14PM 38.9756 -78.6117 272° West 429 494 21,400 1,620 Climbing Washington Center
06:15PM 38.9778 -78.7639 271° West 434 499 23,200 1,620 Climbing Washington Center
06:16PM 38.9819 -78.9217 272° West 439 505 24,600 1,260 Climbing Washington Center
06:17PM 38.9881 -79.0767 273° West 439 505 25,800 1,140 Climbing Washington Center
06:18PM 38.9894 -79.2397 271° West 445 512 26,900 1,020 Climbing Washington Center
06:19PM 38.9908 -79.4000 271° West 450 518 27,900 1,140 Climbing Washington Center
06:20PM 38.9981 -79.5633 273° West 456 525 29,300 1,200 Climbing Washington Center
06:21PM 38.9992 -79.7131 271° West 471 542 30,300 1,080 Climbing Washington Center
06:22PM 39.0033 -79.8922 272° West 465 535 31,500 1,020 Climbing Washington Center
06:24PM 39.0061 -80.2581 271° West 442 509 33,900 720 Climbing Indianapolis Center
06:25PM 39.0075 -80.4128 271° West 436 502 34,000  Climbing Indianapolis Center
06:26PM 39.0094 -80.5678 271° West 433 498 34,000  Level Indianapolis Center
06:27PM 39.0119 -80.7239 271° West 438 504 34,000  Level Indianapolis Center
06:28PM 39.0378 -80.8753 282° West 443 510 34,000  Level Indianapolis Center
06:29PM 39.1075 -81.0408 299° West 442 509 34,000  Level Indianapolis Center
06:30PM 39.1656 -81.1803 298° West 444 511 34,000  Level Indianapolis Center
06:31PM 39.2231 -81.3200 298° West 444 511 34,000  Level Indianapolis Center
06:32PM 39.2797 -81.4594 298° West 442 509 34,000  Level Indianapolis Center
06:33PM 39.3358 -81.5994 297° West 442 509 34,000  Level Indianapolis Center
06:34PM 39.3931 -81.7400 298° West 443 510 34,000  Level Indianapolis Center
06:35PM 39.4614 -81.9086 298° West 442 509 34,000  Level Indianapolis Center
06:36PM 39.5167 -82.0506 297° West 444 511 34,000  Level Indianapolis Center
06:37PM 39.5731 -82.1922 297° West 442 509 34,000  Level Indianapolis Center
06:38PM 39.6303 -82.3347 298° West 441 507 34,000  Level Indianapolis Center
06:39PM 39.6872 -82.4781 297° West 444 511 34,000  Level Indianapolis Center
06:40PM 39.7436 -82.6219 297° West 444 511 34,000  Level Indianapolis Center
06:41PM 39.8000 -82.7650 297° West 444 511 34,000  Level Indianapolis Center
06:43PM 39.8661 -82.9336 297° West 447 514 34,000  Level Indianapolis Center
06:44PM 39.9219 -83.0786 297° West 446 513 34,000 -60 Level Indianapolis Center
06:45PM 39.9778 -83.2228 297° West 446 513 33,900  Descending Indianapolis Center
06:46PM 40.0331 -83.3672 297° West 447 514 34,000  Climbing Indianapolis Center
06:47PM 40.0878 -83.5114 296° West 447 514 34,000 -60 Level Indianapolis Center
06:48PM 40.1519 -83.6808 296° West 447 514 33,900  Descending Indianapolis Center
06:49PM 40.2078 -83.8267 297° West 446 513 34,000  Climbing Indianapolis Center
06:50PM 40.2633 -83.9739 296° West 449 517 34,000  Level Indianapolis Center
06:51PM 40.3186 -84.1206 296° West 447 514 34,000 -60 Level Indianapolis Center
06:52PM 40.3736 -84.2689 296° West 449 517 33,900  Descending Indianapolis Center
06:53PM 40.4289 -84.4161 296° West 446 513 34,000  Climbing Indianapolis Center
06:54PM 40.4839 -84.5644 296° West 447 514 34,000  Level Indianapolis Center
06:55PM 40.5647 -84.7250 304° West 449 517 34,000  Level Indianapolis Center
06:56PM 40.6494 -84.8511 312° West 456 525 34,000  Level Indianapolis Center
06:57PM 40.7208 -84.9917 304° West 449 517 34,000  Level Indianapolis Center
06:58PM 40.7692 -85.1175 297° West 449 517 34,000  Level Chicago Center
06:59PM 40.8278 -85.2639 298° West 449 517 34,000  Level Chicago Center
07:00PM 40.8850 -85.4128 297° West 454 522 34,000  Level Chicago Center
07:01PM 40.9417 -85.5608 297° West 452 520 34,000  Level Chicago Center
07:02PM 41.0100 -85.7403 297° West 453 521 34,000  Level Chicago Center
07:03PM 41.0656 -85.8903 296° West 454 522 34,000  Level Chicago Center
07:04PM 41.1272 -86.0372 299° West 455 524 34,000  Level Chicago Center
07:05PM 41.2197 -86.1572 316° Northwest 463 533 34,000  Level Chicago Center
07:06PM 41.3153 -86.2722 318° Northwest 462 532 34,000  Level Chicago Center
07:07PM 41.4036 -86.3972 313° West 463 533 34,000  Level Chicago Center
07:08PM 41.4719 -86.5375 303° West 456 525 34,000  Level Chicago Center
07:09PM 41.5392 -86.7178 297° West 455 524 34,000  Level Chicago Center
07:10PM 41.5964 -86.8731 296° West 453 521 34,000  Level Chicago Center
07:11PM 41.6497 -87.0236 295° West 452 520 34,000  Level Chicago Center
07:12PM 41.7044 -87.1736 296° West 454 522 34,000  Level Chicago Center
07:13PM 41.7578 -87.3219 296° West 449 517 34,000  Level Chicago Center
07:14PM 41.8225 -87.5022 296° West 452 520 34,000  Level Chicago Center
07:15PM 41.8772 -87.6542 296° West 456 525 34,000  Level Chicago Center
07:17PM 41.9303 -87.8056 295° West 456 525 34,000  Level Chicago Center
07:18PM 41.9842 -87.9583 295° West 458 527 34,000  Level Chicago Center
07:19PM 42.0369 -88.1119 295° West 459 528 34,000  Level Chicago Center
07:20PM 42.1011 -88.2967 295° West 458 527 34,000  Level Chicago Center
07:21PM 42.1536 -88.4519 295° West 459 528 34,000  Level Chicago Center
07:22PM 42.2069 -88.6039 295° West 455 524 34,000  Level Chicago Center
07:23PM 42.2594 -88.7581 295° West 456 525 34,000  Level Chicago Center
07:24PM 42.3189 -88.9356 294° West 461 531 34,000  Level Chicago Center
07:25PM 42.3717 -89.0964 294° West 463 533 34,000  Level Chicago Center
07:26PM 42.4244 -89.2542 294° West 459 528 34,000  Level Chicago Center
07:27PM 42.4769 -89.4117 294° West 457 526 34,000  Level Chicago Center
07:28PM 42.5364 -89.5931 294° West 452 520 34,000  Level Chicago Center
07:29PM 42.5881 -89.7511 294° West 455 524 34,000  Level Chicago Center
07:30PM 42.6406 -89.9139 294° West 455 524 34,000  Level Chicago Center
07:31PM 42.6933 -90.0711 295° West 460 529 34,000  Level Chicago Center
07:32PM 42.7439 -90.2253 294° West 454 522 34,000  Level Chicago Center
07:33PM 42.7914 -90.3769 293° West 445 512 34,000  Level Chicago Center
07:34PM 42.8506 -90.5606 294° West 445 512 34,000 420 Level Chicago Center
07:35PM 42.8972 -90.7144 293° West 445 512 34,900 900 Climbing Chicago Center
07:36PM 42.9461 -90.8692 293° West 443 510 35,900 600 Climbing Chicago Center
07:37PM 42.9739 -90.9561 294° West 442 509 36,000  Climbing Minneapolis Center
07:38PM 43.0294 -91.1336 293° West 434 499 36,000  Level Minneapolis Center
07:39PM 43.0758 -91.2836 293° West 435 501 36,000  Level Minneapolis Center
07:40PM 43.1225 -91.4331 293° West 435 501 36,000  Level Minneapolis Center
07:41PM 43.1689 -91.5833 293° West 436 502 36,000  Level Minneapolis Center
07:42PM 43.2219 -91.7650 292° West 435 501 36,000  Level Minneapolis Center
07:43PM 43.2692 -91.9186 293° West 439 505 36,000  Level Minneapolis Center
07:44PM 43.3150 -92.0739 292° West 443 510 36,000  Level Minneapolis Center
07:45PM 43.3617 -92.2261 293° West 441 507 36,000  Level Minneapolis Center
07:46PM 43.4247 -92.4431 292° West 443 510 36,000  Level Minneapolis Center
07:47PM 43.4697 -92.6000 292° West 448 516 36,000  Level Minneapolis Center
07:48PM 43.5156 -92.7553 292° West 445 512 36,000  Level Minneapolis Center
07:50PM 43.5589 -92.9125 291° West 444 511 36,000  Level Minneapolis Center
07:51PM 43.6625 -93.1003 307° West 442 509 36,000  Level Minneapolis Center
07:52PM 43.7300 -93.2125 310° West 439 505 36,000  Level Minneapolis Center
07:53PM 43.8233 -93.3700 309° West 441 507 36,000  Level Minneapolis Center
07:54PM 43.9025 -93.5000 310° West 442 509 36,000  Level Minneapolis Center
07:55PM 43.9806 -93.6300 310° West 439 505 36,000  Level Minneapolis Center
07:56PM 44.0367 -93.7394 306° West 436 502 36,000  Level Minneapolis Center
07:57PM 44.1061 -93.9167 299° West 434 499 36,000  Level Minneapolis Center
07:58PM 44.1522 -94.0717 293° West 433 498 36,000  Level Minneapolis Center
07:59PM 44.2011 -94.2578 290° West 428 493 36,000  Level Minneapolis Center
08:00PM 44.2414 -94.4158 290° West 430 495 36,000  Level Minneapolis Center
08:01PM 44.2817 -94.5719 290° West 430 495 36,000  Level Minneapolis Center
08:03PM 44.3633 -94.8872 290° West 428 493 36,000  Level Minneapolis Center
08:04PM 44.4103 -95.0750 289° West 429 494 36,000  Level Minneapolis Center
08:05PM 44.4494 -95.2314 289° West 429 494 36,000  Level Minneapolis Center
08:06PM 44.4886 -95.3883 289° West 430 495 36,000  Level Minneapolis Center
08:07PM 44.5269 -95.5481 289° West 434 499 36,000  Level Minneapolis Center
08:08PM 44.5672 -95.7072 290° West 436 502 36,000  Level Minneapolis Center
08:09PM 44.6147 -95.9008 289° West 440 506 36,000  Level Minneapolis Center
08:10PM 44.6522 -96.0617 288° West 440 506 36,000  Level Minneapolis Center
08:11PM 44.6892 -96.2208 288° West 436 502 36,000  Level Minneapolis Center
08:12PM 44.7267 -96.3794 288° West 433 498 36,000  Level Minneapolis Center
08:14PM 44.7644 -96.5381 289° West 431 496 36,000  Level Minneapolis Center
08:15PM 44.8100 -96.7303 289° West 435 501 36,000  Level Minneapolis Center
08:16PM 44.8467 -96.8894 288° West 432 497 36,000  Level Minneapolis Center
08:17PM 44.8850 -97.0511 289° West 437 503 36,000  Level Minneapolis Center
08:18PM 44.9211 -97.2128 288° West 437 503 36,000  Level Minneapolis Center
08:19PM 44.9581 -97.3747 288° West 437 503 36,000  Level Minneapolis Center
08:20PM 44.9961 -97.5356 289° West 435 501 36,000  Level Minneapolis Center
08:21PM 45.0375 -97.7306 287° West 433 498 36,000  Level Minneapolis Center
08:22PM 45.0656 -97.8594 287° West 433 498 36,000  Level Minneapolis Center
08:23PM 45.1081 -98.0508 288° West 428 493 36,000  Level Minneapolis Center
08:24PM 45.1461 -98.2261 287° West 426 490 36,000  Level Minneapolis Center
08:25PM 45.1811 -98.3864 287° West 426 490 36,000  Level Minneapolis Center
08:26PM 45.2161 -98.5483 287° West 429 494 36,000  Level Minneapolis Center
08:27PM 45.2511 -98.7103 287° West 432 497 36,000  Level Minneapolis Center
08:28PM 45.2856 -98.8722 287° West 430 495 36,000  Level Minneapolis Center
08:29PM 45.3200 -99.0333 287° West 429 494 36,000  Level Minneapolis Center
08:30PM 45.3603 -99.2236 287° West 423 487 36,000  Level Minneapolis Center
08:31PM 45.3933 -99.3850 286° West 427 491 36,000  Level Minneapolis Center
08:32PM 45.4264 -99.5433 287° West 424 488 36,000  Level Minneapolis Center
08:33PM 45.4581 -99.7042 286° West 425 489 36,000  Level Minneapolis Center
08:34PM 45.4969 -99.8975 286° West 426 490 36,000  Level Minneapolis Center
08:35PM 45.5278 -100.0578 285° West 424 488 36,000  Level Minneapolis Center
08:36PM 45.5658 -100.2506 286° West 424 488 36,000  Level Minneapolis Center
08:37PM 45.5969 -100.4103 286° West 422 486 36,000  Level Minneapolis Center
08:38PM 45.6267 -100.5664 285° West 415 478 36,000  Level Minneapolis Center
08:40PM 45.6572 -100.7206 286° West 408 470 36,000  Level Minneapolis Center
08:41PM 45.6844 -100.8761 284° West 406 467 36,000  Level Minneapolis Center
08:42PM 45.7139 -101.0314 285° West 406 467 36,000  Level Minneapolis Center
08:43PM 45.7436 -101.2186 283° West 404 465 36,000  Level Minneapolis Center
08:44PM 45.7489 -101.3786 273° West 402 463 36,000  Level Minneapolis Center
08:45PM 45.7483 -101.5361 270° West 399 459 36,000  Level Minneapolis Center
08:46PM 45.7394 -101.6908 265° West 393 452 36,000  Level Minneapolis Center
08:47PM 45.7286 -101.8456 264° West 392 451 36,000  Level Minneapolis Center
08:48PM 45.7197 -102.0033 265° West 396 456 36,000  Level Minneapolis Center
08:49PM 45.7108 -102.1947 266° West 401 461 36,000  Level Minneapolis Center
08:50PM 45.7064 -102.3567 268° West 406 467 36,000  Level Minneapolis Center
08:51PM 45.7056 -102.5172 270° West 406 467 36,000 -60 Level Minneapolis Center
08:52PM 45.7106 -102.6675 273° West 409 471 35,900  Descending Minneapolis Center
08:53PM 45.7181 -102.8297 274° West 410 472 36,000  Climbing Minneapolis Center
08:54PM 45.7439 -103.0253 281° West 416 479 35,900  Descending Minneapolis Center
08:55PM 45.7925 -103.1786 294° West 424 488 36,000  Climbing Minneapolis Center
08:56PM 45.8683 -103.3228 307° West 447 514 35,900 -60 Descending Minneapolis Center
08:57PM 45.9450 -103.4642 308° West 450 518 35,900  Level Minneapolis Center
08:58PM 46.0075 -103.5794 308° West 454 522 35,900  Level Minneapolis Center
08:59PM 46.1014 -103.7503 308° West 455 524 35,900  Level Minneapolis Center
09:00PM 46.1817 -103.9319 303° West 448 516 35,900  Level Minneapolis Center
09:01PM 46.2169 -104.0956 287° West 435 501 35,900  Level Salt Lake Center
09:02PM 46.2467 -104.2925 282° West 422 486 36,000  Climbing Salt Lake Center
09:03PM 46.2725 -104.4561 283° West 421 484 36,000 -60 Level Salt Lake Center
09:04PM 46.2986 -104.6225 283° West 421 484 35,900  Descending Salt Lake Center
09:05PM 46.3247 -104.7908 283° West 425 489 36,000  Climbing Salt Lake Center
09:06PM 46.3492 -104.9594 282° West 423 487 36,000  Level Salt Lake Center
09:07PM 46.3781 -105.1489 283° West 428 493 36,000 60 Level Salt Lake Center
09:09PM 46.4025 -105.3114 282° West 429 494 36,200 660 Climbing Salt Lake Center
09:10PM 46.4267 -105.4722 282° West 429 494 37,400 840 Climbing Salt Lake Center
09:11PM 46.4542 -105.6556 282° West 425 489 38,000 240 Climbing Salt Lake Center
09:12PM 46.4772 -105.8142 282° West 421 484 38,000  Level Salt Lake Center
09:13PM 46.5050 -106.0014 282° West 424 488 38,000  Level Salt Lake Center
09:14PM 46.5289 -106.1631 282° West 427 491 38,000  Level Salt Lake Center
09:15PM 46.5553 -106.3522 282° West 428 493 38,000  Level Salt Lake Center
09:16PM 46.5800 -106.5197 282° West 436 502 38,000  Level Salt Lake Center
09:17PM 46.6025 -106.6864 281° West 439 505 38,000  Level Salt Lake Center
09:18PM 46.6292 -106.8789 281° West 437 503 38,000  Level Salt Lake Center
09:19PM 46.6511 -107.0417 281° West 431 496 38,000  Level Salt Lake Center
09:20PM 46.6767 -107.2311 281° West 428 493 38,000  Level Salt Lake Center
09:21PM 46.6975 -107.3911 281° West 423 487 38,000  Level Salt Lake Center
09:22PM 46.7217 -107.5811 281° West 425 489 38,000  Level Salt Lake Center
09:23PM 46.7425 -107.7436 281° West 427 491 38,000  Level Salt Lake Center
09:24PM 46.7619 -107.9072 280° West 429 494 38,000  Level Salt Lake Center
09:25PM 46.7858 -108.0969 280° West 427 491 38,000  Level Salt Lake Center
09:26PM 46.8056 -108.2617 280° West 430 495 38,000  Level Salt Lake Center
09:27PM 46.8286 -108.4503 280° West 426 490 38,000  Level Salt Lake Center
09:28PM 46.8478 -108.6150 280° West 428 493 38,000  Level Salt Lake Center
09:29PM 46.8681 -108.7811 280° West 434 499 38,000  Level Salt Lake Center
09:30PM 46.8906 -108.9764 280° West 437 503 38,000  Level Salt Lake Center
09:31PM 46.9106 -109.1439 280° West 438 504 38,000  Level Salt Lake Center
09:32PM 46.9306 -109.3197 280° West 439 505 38,000 -60 Level Salt Lake Center
09:33PM 46.9503 -109.4953 279° West 437 503 37,900  Descending Salt Lake Center
09:34PM 46.9703 -109.6706 280° West 438 504 38,000  Climbing Salt Lake Center
09:35PM 46.9886 -109.8497 279° West 442 509 37,900  Descending Salt Lake Center
09:36PM 47.0106 -110.0653 279° West 445 512 38,000  Climbing Salt Lake Center
09:37PM 47.0289 -110.2467 278° West 449 517 37,900  Descending Salt Lake Center
09:38PM 47.0478 -110.4286 279° West 451 519 38,000  Climbing Salt Lake Center
09:39PM 47.0667 -110.6078 279° West 447 514 37,900 -60 Descending Salt Lake Center
09:40PM 47.0850 -110.7881 279° West 446 513 37,900  Level Salt Lake Center
09:41PM 47.1028 -110.9703 278° West 449 517 37,900  Level Salt Lake Center
09:42PM 47.1197 -111.1522 278° West 449 517 38,000  Climbing Salt Lake Center
09:43PM 47.1367 -111.3317 278° West 444 511 37,900  Descending Salt Lake Center
09:44PM 47.1539 -111.5131 278° West 445 512 38,000  Climbing Salt Lake Center
09:45PM 47.1725 -111.7306 277° West 446 513 37,900 -60 Descending Salt Lake Center
09:46PM 47.1894 -111.9117 278° West 446 513 37,900  Level Salt Lake Center
09:47PM 47.2044 -112.0942 277° West 448 516 37,900  Level Salt Lake Center
09:49PM 47.2214 -112.2781 278° West 452 520 37,900  Level Salt Lake Center
09:50PM 47.2358 -112.4608 277° West 451 519 37,900  Level Salt Lake Center
09:51PM 47.2506 -112.6456 277° West 453 521 37,900  Level Salt Lake Center
09:52PM 47.2661 -112.8297 277° West 453 521 38,000  Climbing Salt Lake Center
09:53PM 47.2817 -113.0192 277° West 457 526 38,000 -60 Level Salt Lake Center
09:54PM 47.2964 -113.2028 277° West 453 521 37,900  Descending Salt Lake Center
09:55PM 47.3097 -113.3869 276° West 451 519 38,000  Climbing Salt Lake Center
09:56PM 47.3269 -113.6103 277° West 457 526 37,900  Descending Salt Lake Center
09:57PM 47.3394 -113.7953 276° West 455 524 38,000  Climbing Salt Lake Center
09:58PM 47.3528 -113.9792 276° West 452 520 38,000  Level Salt Lake Center
09:59PM 47.3664 -114.1644 276° West 452 520 38,000 -60 Level Salt Lake Center
10:00PM 47.3781 -114.3481 275° West 450 518 37,900  Descending Salt Lake Center
10:01PM 47.3906 -114.5328 276° West 452 520 38,000  Climbing Salt Lake Center
10:02PM 47.4025 -114.7164 276° West 450 518 37,900  Descending Salt Lake Center
10:03PM 47.4125 -114.8667 276° West 455 524 38,000  Climbing Seattle Center
10:04PM 47.4233 -115.0519 275° West 454 522 37,900 -60 Descending Seattle Center
10:05PM 47.4347 -115.2361 275° West 450 518 37,900  Level Seattle Center
10:06PM 47.4447 -115.4217 275° West 453 521 38,000  Climbing Seattle Center
10:07PM 47.4558 -115.6075 275° West 456 525 38,000 -60 Level Seattle Center
10:08PM 47.4656 -115.7961 274° West 453 521 37,900  Descending Seattle Center
10:09PM 47.4778 -115.9808 276° West 453 521 38,000  Climbing Seattle Center
10:10PM 47.4889 -116.1656 275° West 453 521 38,000 -60 Level Seattle Center
10:11PM 47.4992 -116.3517 275° West 454 522 37,900 -60 Descending Seattle Center
10:12PM 47.5094 -116.5375 275° West 454 522 37,900  Level Seattle Center
10:13PM 47.5200 -116.7225 275° West 452 520 37,900  Level Seattle Center
10:14PM 47.5314 -116.9467 274° West 455 524 37,900  Level Seattle Center
10:15PM 47.5436 -117.1300 276° West 456 525 38,000  Climbing Seattle Center
10:16PM 47.5489 -117.2964 273° West 455 524 38,000 -60 Level Seattle Center
10:17PM 47.5586 -117.4836 274° West 456 525 37,900 -60 Descending Seattle Center
10:18PM 47.5694 -117.6717 275° West 457 526 37,900  Level Seattle Center
10:19PM 47.5881 -117.8600 278° West 462 532 37,900  Level Seattle Center
10:20PM 47.6056 -118.0461 278° West 459 528 38,000  Climbing Seattle Center
10:21PM 47.6256 -118.2703 278° West 459 528 38,000  Level Seattle Center
10:22PM 47.6414 -118.4561 277° West 458 527 38,000 -60 Level Seattle Center
10:23PM 47.6583 -118.6436 278° West 459 528 37,900 -60 Descending Seattle Center
10:24PM 47.6750 -118.8300 278° West 458 527 37,900  Level Seattle Center
10:25PM 47.6900 -119.0144 277° West 454 522 37,900  Level Seattle Center
10:26PM 47.7050 -119.2011 277° West 454 522 38,000  Climbing Seattle Center
10:27PM 47.7208 -119.3869 277° West 456 525 38,000 -60 Level Seattle Center
10:28PM 47.7350 -119.5750 276° West 459 528 37,900  Descending Seattle Center
10:29PM 47.7508 -119.7622 277° West 460 529 38,000 -900 Climbing Seattle Center
10:30PM 47.7656 -119.9525 277° West 463 533 36,100 -2,520 Descending Seattle Center
10:31PM 47.7781 -120.1422 276° West 464 534 33,000 -3,240 Descending Seattle Center
10:32PM 47.7933 -120.3333 277° West 466 536 29,600 -3,000 Descending Seattle Center
10:33PM 47.8058 -120.5236 276° West 463 533 27,000 -2,580 Descending Seattle Center
10:34PM 47.8189 -120.7050 276° West 446 513 24,400 -2,760 Descending Seattle Center
10:35PM 47.8344 -120.9003 277° West 432 497 21,500 -2,640 Descending Seattle Center
10:36PM 47.8464 -121.0686 276° West 418 481 19,100 -2,580 Descending Seattle Center
10:37PM 47.8536 -121.1864 275° West 403 464 17,300 -2,400 Descending Seattle Center
10:37PM 47.8564 -121.2317 275° West 404 465 16,700 -2,040 Descending Seattle Center
10:38PM 47.8667 -121.3886 276° West 388 447 14,500 -2,040 Descending Seattle Center
10:39PM 47.8764 -121.5417 275° West 377 434 12,600 -1,680 Descending Seattle Center
10:39PM 47.8794 -121.5931 275° West 365 420 12,400 -600 Descending Seattle Center
10:40PM 47.8831 -121.6794 274° West 338 389 12,000 -900 Descending Seattle Center
10:41PM 47.8231 -121.7903 231° Southwest 292 336 10,800 -1,020 Descending Seattle Center
10:42PM 47.7897 -121.8856 243° Southwest 272 313 10,000 -600 Descending Seattle Center
10:42PM 47.7914 -121.9178 274° West 250 288 10,000 -300 Level Seattle Center
10:43PM 47.7914 -121.9842 270° West 240 276 9,700 -1,320 Descending Seattle Center
10:44PM 47.7936 -122.1014 272° West 229 264 7,500 -1,500 Descending Seattle Center
10:45PM 47.7919 -122.1672 268° West 221 254 6,700 -1,140 Descending Seattle Center
10:45PM 47.7867 -122.1878 249° West 208 239 6,400 -1,320 Descending Seattle Center
10:46PM 47.7631 -122.2461 239° Southwest 201 231 5,400 -1,260 Descending Seattle Center
10:47PM 47.7156 -122.2892 211° Southwest 200 230 4,200 -720 Descending Seattle Center
10:48PM 47.6633 -122.3067 193° South 202 232 4,000 -180 Descending Seattle Center
10:48PM 47.6500 -122.3067 180° South 205 236 4,000 -600 Level Seattle Center
10:49PM 47.6111 -122.3069 180° South 188 216 3,400 -840 Descending Seattle Center